Time;durP1;ratioP1;P1;durP2;ratioP2;P2;SDS_P1;SDS_P2;PMS_P1;PMS_P2;Temp;Humidity;BMP_temperature;BMP_pressure;BME280_temperature;BME280_humidity;BME280_pressure;Samples;Min_cycle;Max_cycle;Signal;HPM_P1;HPM_P2
2024/02/17 00:00:48;;;;;;;12.73;7.25;;;11.30;99.90;;;10.05;100.00;101265.41;4907792;29;20109;-86
2024/02/17 00:05:53;;;;;;;10.35;6.78;;;;;;;10.01;100.00;101268.22;5063514;23;20528;-86
2024/02/17 00:08:19;;;;;;;10.25;6.50;;;;;;;10.03;100.00;101271.66;5027586;28;20113;-86
2024/02/17 00:11:11;;;;;;;9.77;6.78;;;11.30;99.90;;;9.98;100.00;101277.09;5013264;28;20018;-86
2024/02/17 00:13:47;;;;;;;9.35;6.88;;;11.20;99.90;;;9.92;100.00;101273.81;5009136;28;20118;-86
2024/02/17 00:16:34;;;;;;;10.07;6.40;;;;;;;9.90;100.00;101281.75;4979218;28;20030;-86
2024/02/17 00:19:00;;;;;;;12.20;6.95;;;11.20;99.90;;;9.93;100.00;101283.41;4996740;28;20073;-86
2024/02/17 00:22:11;;;;;;;9.15;6.53;;;;;;;9.97;100.00;101282.38;4985018;28;20385;-86
2024/02/17 00:24:49;;;;;;;9.20;5.57;;;;;;;9.80;100.00;101285.59;5042870;23;20033;-87
2024/02/17 00:28:01;;;;;;;8.38;6.07;;;11.20;99.90;;;9.89;100.00;101289.69;5053933;28;20503;-87
2024/02/17 00:30:49;;;;;;;;;;;;;;;;;;;;;
2024/02/17 00:33:22;;;;;;;9.50;5.97;;;;;;;9.85;100.00;101288.94;4976634;28;20045;-86
2024/02/17 00:36:18;;;;;;;9.35;6.28;;;;;;;9.84;100.00;101280.19;4956958;28;20117;-86
2024/02/17 00:39:14;;;;;;;11.55;6.60;;;;;;;9.86;100.00;101282.75;4894292;29;20079;-86
2024/02/17 00:41:52;;;;;;;10.18;6.38;;;;;;;9.87;100.00;101287.13;4841014;29;20129;-86
2024/02/17 00:44:30;;;;;;;9.70;6.82;;;;;;;9.85;100.00;101291.59;4989247;23;20050;-86
2024/02/17 00:46:59;;;;;;;10.20;6.55;;;;;;;9.81;100.00;101297.84;5020794;28;20056;-86
2024/02/17 00:49:36;;;;;;;11.25;7.00;;;;;;;9.79;100.00;101290.00;5009848;28;20040;-86
2024/02/17 00:52:20;;;;;;;13.07;7.28;;;11.00;99.90;;;9.80;100.00;101288.22;5016936;28;20025;-86
2024/02/17 00:55:30;;;;;;;12.27;7.25;;;11.00;99.90;;;9.80;100.00;101294.34;4971803;28;20125;-87
2024/02/17 00:58:08;;;;;;;10.20;7.22;;;;;;;9.79;100.00;101300.53;4931613;29;20051;-86
2024/02/17 01:00:44;;;;;;;;;;;;;;;;;;;;;
2024/02/17 01:03:12;;;;;;;8.90;5.88;;;11.00;99.90;;;9.67;100.00;101300.94;4934465;29;20655;-87
2024/02/17 01:05:39;;;;;;;9.40;5.05;;;11.00;99.90;;;9.63;100.00;101305.47;4903134;29;20476;-86
2024/02/17 01:08:19;;;;;;;7.88;4.57;;;;;;;9.61;100.00;101312.53;4914802;29;20051;-86
2024/02/17 01:10:50;;;;;;;7.63;4.57;;;10.90;99.90;;;9.61;100.00;101311.66;4906716;29;20028;-86
2024/02/17 01:13:19;;;;;;;8.23;4.88;;;;;;;9.64;100.00;101307.16;4897290;29;20284;-86
2024/02/17 01:16:10;;;;;;;10.07;4.78;;;;;;;9.60;100.00;101308.16;4918701;29;20126;-85
2024/02/17 01:18:37;;;;;;;10.55;5.32;;;;;;;9.59;100.00;101314.34;4917400;29;20031;-86
2024/02/17 01:21:03;;;;;;;6.88;4.53;;;;;;;9.53;100.00;101325.06;4915767;29;20040;-86
2024/02/17 01:23:41;;;;;;;8.80;4.95;;;;;;;9.59;100.00;101327.50;4977712;23;20117;-86
2024/02/17 01:26:10;;;;;;;7.72;4.93;;;;;;;9.65;100.00;101335.19;5044259;28;20052;-86
2024/02/17 01:28:49;;;;;;;8.68;4.68;;;;;;;9.69;100.00;101329.81;5041444;28;20040;-86
2024/02/17 01:35:09;;;;;;;9.57;5.25;;;10.80;99.90;;;9.54;100.00;101328.56;5021282;28;20099;-87
2024/02/17 01:38:10;;;;;;;10.32;5.55;;;;;;;9.57;100.00;101328.47;4975991;28;20097;-87
2024/02/17 01:40:52;;;;;;;9.75;5.82;;;;;;;9.59;100.00;101332.75;4932930;29;20051;-87
2024/02/17 01:44:13;;;;;;;;;;;;;;;;;;;;;
2024/02/17 01:46:40;;;;;;;8.43;5.45;;;;;;;9.49;100.00;101335.75;5030595;28;20511;-87
2024/02/17 01:49:20;;;;;;;7.78;5.47;;;;;;;9.44;100.00;101338.53;5010247;28;20480;-87
2024/02/17 01:51:47;;;;;;;9.23;4.90;;;;;;;9.36;100.00;101348.41;5020592;28;20027;-86
2024/02/17 01:54:21;;;;;;;7.47;4.57;;;;;;;9.37;100.00;101342.22;5021173;28;20487;-86
2024/02/17 01:56:50;;;;;;;6.53;4.55;;;10.60;99.90;;;9.30;100.00;101351.22;5024339;28;20065;-86
2024/02/17 02:02:43;;;;;;;10.18;4.93;;;;;;;9.22;100.00;101354.97;5027225;28;20706;-86
2024/02/17 02:05:22;;;;;;;9.18;6.03;;;;;;;9.24;100.00;101355.78;5012124;28;20033;-87
2024/02/17 02:08:00;;;;;;;10.77;5.90;;;;;;;9.22;100.00;101354.06;5032178;28;20040;-85
2024/02/17 02:10:26;;;;;;;9.00;4.85;;;;;;;9.14;100.00;101354.34;5011534;28;20176;-86
2024/02/17 02:13:20;;;;;;;14.70;5.28;;;;;;;9.12;100.00;101358.78;5012340;28;20703;-87
2024/02/17 02:16:11;;;;;;;7.60;4.65;;;10.40;99.90;;;9.06;100.00;101360.72;5024106;28;20500;-86
2024/02/17 02:18:40;;;;;;;6.88;4.18;;;10.40;99.90;;;9.03;100.00;101351.19;5006519;28;20037;-86
2024/02/17 02:21:32;;;;;;;7.10;4.22;;;;;;;9.03;100.00;101359.06;5035709;28;20025;-87
2024/02/17 02:24:00;;;;;;;9.95;4.90;;;;;;;8.95;100.00;101361.03;5015194;28;20029;-86
2024/02/17 02:26:41;;;;;;;8.50;5.10;;;10.30;99.90;;;8.68;100.00;101355.69;5008614;28;20077;-86
2024/02/17 02:29:22;;;;;;;10.80;5.95;;;;;;;8.75;100.00;101366.88;5009462;28;20030;-86
2024/02/17 02:32:20;;;;;;;9.35;5.90;;;10.30;99.90;;;8.78;100.00;101361.53;5018357;28;20048;-86
2024/02/17 02:35:08;;;;;;;;;;;10.20;99.90;;;8.66;100.00;101357.50;4941875;28;20056;-87
2024/02/17 02:37:55;;;;;;;11.77;6.75;;;10.20;99.90;;;8.72;100.00;101359.94;4961862;28;19909;-86
2024/02/17 02:40:29;;;;;;;12.30;6.63;;;10.10;99.90;;;8.77;100.00;101365.09;4942189;28;20789;-86
2024/02/17 02:43:32;;;;;;;11.75;7.22;;;10.20;99.90;;;8.78;100.00;101367.63;4940546;28;20043;-86
2024/02/17 02:46:18;;;;;;;12.45;6.72;;;;;;;8.79;100.00;101374.63;4877038;29;20127;-86
2024/02/17 02:49:51;;;;;;;13.43;7.53;;;10.20;99.90;;;8.77;100.00;101363.31;4887798;29;20032;-86
2024/02/17 02:53:20;;;;;;;13.75;7.55;;;10.20;99.90;;;8.82;100.00;101363.16;4826411;29;20041;-86
2024/02/17 03:00:13;;;;;;;;;;;;;;;;;;;;;
2024/02/17 03:02:52;;;;;;;14.52;6.35;;;10.30;99.90;;;8.96;100.00;101370.63;4756200;23;20041;-86
2024/02/17 03:05:21;;;;;;;13.93;7.00;;;;;;;8.98;100.00;101377.56;5012298;28;20044;-86
2024/02/17 03:08:21;;;;;;;11.95;6.60;;;10.30;99.90;;;8.96;100.00;101373.25;5022099;28;20042;-86
2024/02/17 03:10:53;;;;;;;11.52;6.10;;;;;;;8.99;100.00;101376.66;4921014;29;20035;-85
2024/02/17 03:13:19;;;;;;;12.70;6.22;;;;;;;9.07;100.00;101379.09;4937902;29;20031;-86
2024/02/17 03:16:19;;;;;;;11.70;5.68;;;;;;;9.10;100.00;101384.22;4940148;29;20044;-86
2024/02/17 03:19:11;;;;;;;9.10;5.05;;;10.40;99.90;;;9.14;100.00;101382.38;4871676;29;20044;-86
2024/02/17 03:25:38;;;;;;;7.63;4.38;;;10.40;99.90;;;9.20;100.00;101390.94;4827396;29;20049;-87
2024/02/17 03:28:19;;;;;;;6.53;3.70;;;;;;;9.22;100.00;101396.13;4811843;29;20429;-86
2024/02/17 03:31:11;;;;;;;8.98;3.47;;;;;;;9.24;100.00;101397.81;4814799;29;20047;-86
2024/02/17 03:33:40;;;;;;;7.38;3.10;;;;;;;9.23;100.00;101392.59;4817443;29;20068;-86
2024/02/17 03:36:31;;;;;;;4.50;3.08;;;10.50;99.90;;;9.27;100.00;101386.34;4821746;29;20046;-86
2024/02/17 03:39:03;;;;;;;7.00;2.90;;;;;;;9.24;100.00;101389.94;4827544;29;20074;-85
2024/02/17 03:41:55;;;;;;;5.78;2.35;;;;;;;9.29;100.00;101402.06;4815203;29;20042;-86
2024/02/17 03:44:30;;;;;;;6.65;2.83;;;10.50;99.90;;;9.31;100.00;101401.13;4812427;29;20046;-86
2024/02/17 03:47:21;;;;;;;;;;;;;;;;;;;;;
2024/02/17 03:50:19;;;;;;;9.10;2.90;;;10.50;99.90;;;9.21;100.00;101411.03;4803578;29;20043;-86
2024/02/17 03:53:20;;;;;;;6.13;3.30;;;10.50;99.90;;;9.15;100.00;101413.00;4808848;29;20077;-86
2024/02/17 03:58:42;;;;;;;5.85;3.65;;;;;;;9.19;100.00;101415.47;4859609;29;20377;-86
2024/02/17 04:01:08;;;;;;;6.43;3.40;;;10.50;99.90;;;9.18;100.00;101419.03;4877212;29;20123;-86
2024/02/17 04:03:47;;;;;;;7.13;3.88;;;;;;;9.10;100.00;101421.00;4906594;29;20044;-86
2024/02/17 04:06:21;;;;;;;7.47;4.13;;;;;;;9.04;100.00;101436.94;4903592;29;20039;-87
2024/02/17 04:08:50;;;;;;;7.00;3.42;;;;;;;8.80;100.00;101434.09;4907847;29;20093;-86
2024/02/17 04:11:40;;;;;;;8.05;4.00;;;;;;;8.86;100.00;101437.50;4902553;29;20063;-86
2024/02/17 04:14:10;;;;;;;14.88;6.13;;;;;;;8.59;100.00;101432.06;4906105;29;20514;-87
2024/02/17 04:16:59;;;;;;;12.57;6.43;;;;;;;8.38;100.00;101434.34;4910005;29;20071;-86
2024/02/17 04:19:31;;;;;;;13.13;6.50;;;9.90;99.90;;;8.31;100.00;101430.13;4874113;29;20045;-87
2024/02/17 04:23:12;;;;;;;12.77;6.72;;;9.80;99.90;;;8.25;100.00;101434.69;4900834;29;20336;-87
2024/02/17 04:26:19;;;;;;;12.95;4.72;;;;;;;7.95;100.00;101440.69;4912840;29;20059;-86
2024/02/17 04:28:51;;;;;;;5.75;3.13;;;;;;;7.87;100.00;101450.47;4900435;29;20194;-86
2024/02/17 04:31:32;;;;;;;6.95;3.85;;;;;;;7.87;100.00;101453.09;4905144;29;20047;-87
2024/02/17 04:34:29;;;;;;;6.13;3.65;;;;;;;7.65;100.00;101436.16;4908609;29;20036;-87
2024/02/17 04:37:22;;;;;;;8.05;4.75;;;;;;;7.58;100.00;101457.28;4895120;29;20165;-87
2024/02/17 04:40:00;;;;;;;11.90;4.80;;;;;;;7.52;100.00;101464.41;4915447;29;20035;-86
2024/02/17 04:42:28;;;;;;;11.95;4.47;;;9.10;99.90;;;7.42;100.00;101463.72;4917512;29;20031;-86
2024/02/17 04:45:03;;;;;;;11.45;6.53;;;9.10;99.90;;;7.46;100.00;101472.41;4891031;29;20032;-87
2024/02/17 04:47:29;;;;;;;5.57;3.10;;;9.00;99.90;;;7.34;100.00;101465.66;4903635;29;20187;-86
2024/02/17 04:53:21;;;;;;;7.00;3.85;;;8.90;99.90;;;7.25;100.00;101479.81;4902078;29;20083;-86
2024/02/17 04:55:47;;;;;;;6.88;3.25;;;;;;;7.30;100.00;101484.94;4906988;29;20039;-87
2024/02/17 04:58:24;;;;;;;7.55;3.97;;;;;;;7.09;100.00;101481.88;4940802;28;20042;-86
2024/02/17 05:00:50;;;;;;;9.27;4.32;;;;;;;6.81;100.00;101480.69;4943637;28;20039;-86
2024/02/17 05:04:13;;;;;;;5.82;2.95;;;8.40;99.90;;;6.62;100.00;101495.88;4935291;29;20048;-86
2024/02/17 05:06:39;;;;;;;5.88;3.33;;;;;;;6.52;100.00;101497.78;4905527;29;20051;-86
2024/02/17 05:09:49;;;;;;;3.92;2.05;;;8.10;99.90;;;6.39;100.00;101510.19;4913671;29;20032;-86
2024/02/17 05:13:01;;;;;;;7.43;3.30;;;8.10;99.90;;;6.29;100.00;101517.34;4875034;29;20024;-86
2024/02/17 05:15:30;;;;;;;1.92;1.30;;;;;;;6.22;100.00;101522.69;4854741;29;20643;-86
2024/02/17 05:18:11;;;;;;;4.97;2.33;;;;;;;6.24;100.00;101532.25;4850976;29;20094;-86
2024/02/17 05:21:00;;;;;;;8.27;2.75;;;7.90;99.90;;;6.25;100.00;101535.75;4849065;29;20568;-86
2024/02/17 05:23:29;;;;;;;2.90;1.27;;;;;;;6.22;100.00;101525.31;4836821;29;20045;-86
2024/02/17 05:26:59;;;;;;;4.57;1.30;;;7.80;99.90;;;6.15;100.00;101540.22;4854154;29;20045;-86
2024/02/17 05:29:49;;;;;;;4.43;1.33;;;7.80;99.90;;;6.16;100.00;101555.91;4806812;29;20047;-87
2024/02/17 05:32:18;;;;;;;2.30;1.25;;;;;;;6.09;100.00;101566.47;4826407;29;20033;-87
2024/02/17 05:34:53;;;;;;;1.05;0.77;;;;;;;6.12;100.00;101563.81;4834121;29;20074;-87
2024/02/17 05:37:19;;;;;;;2.40;0.67;;;;;;;6.08;100.00;101562.13;4832970;29;20114;-86
2024/02/17 05:42:40;;;;;;;2.53;0.60;;;;;;;6.12;100.00;101566.44;4868349;29;20036;-86
2024/02/17 05:45:39;;;;;;;3.53;0.70;;;;;;;6.15;100.00;101572.50;4899854;29;20043;-86
2024/02/17 05:48:12;;;;;;;1.77;0.40;;;;;;;6.09;100.00;101590.00;4905241;29;20041;-86
2024/02/17 05:50:44;;;;;;;0.50;0.30;;;;;;;6.19;100.00;101580.28;4907375;29;20040;-86
2024/02/17 05:53:20;;;;;;;1.73;0.30;;;;;;;6.06;100.00;101587.44;4942149;29;20182;-86
2024/02/17 05:55:46;;;;;;;0.77;0.30;;;;;;;6.03;100.00;101598.81;4924357;29;20529;-85
2024/02/17 05:58:40;;;;;;;0.90;0.30;;;;;;;5.87;100.00;101594.63;4946186;29;20114;-86
2024/02/17 06:01:21;;;;;;;1.23;0.20;;;;;;;5.70;100.00;101600.97;4943634;29;20805;-86
2024/02/17 06:04:49;;;;;;;0.68;0.10;;;7.40;99.90;;;5.61;100.00;101602.78;4926174;29;20207;-86
2024/02/17 06:07:31;;;;;;;0.22;0.10;;;7.30;99.90;;;5.57;100.00;101609.78;4889656;29;20502;-85
2024/02/17 06:10:59;;;;;;;0.45;0.22;;;7.20;99.90;;;5.42;100.00;101609.97;4908372;29;20040;-86
2024/02/17 06:14:10;;;;;;;0.50;0.20;;;7.10;99.90;;;5.38;100.00;101611.78;4818390;29;20042;-86
2024/02/17 06:22:41;;;;;;;0.65;0.30;;;;;;;5.40;100.00;101633.53;4794082;29;20584;-86
2024/02/17 06:25:17;;;;;;;2.80;0.30;;;;;;;5.37;100.00;101636.16;4795984;29;20134;-85
2024/02/17 06:28:35;;;;;;;0.90;0.22;;;7.00;99.90;;;5.25;100.00;101644.13;4798490;29;20080;-86
2024/02/17 06:31:42;;;;;;;;;;;6.90;99.90;;;5.14;100.00;101658.16;4722943;30;20036;-85
2024/02/17 06:34:11;;;;;;;2.13;0.20;;;;;;;5.12;100.00;101672.09;4984679;23;20031;-86
2024/02/17 06:37:05;;;;;;;2.10;0.60;;;;;;;5.25;100.00;101676.31;5036761;28;20074;-86
2024/02/17 06:39:31;;;;;;;0.20;0.20;;;;;;;5.13;100.00;101677.28;5050825;28;20391;-86
2024/02/17 06:42:23;;;;;;;1.63;0.45;;;6.70;99.90;;;4.99;100.00;101671.34;5052249;28;20029;-87
2024/02/17 06:44:50;;;;;;;6.13;1.67;;;;;;;4.89;100.00;101687.94;4920067;28;20646;-86
2024/02/17 06:50:43;;;;;;;3.60;0.57;;;;;;;4.90;100.00;101702.72;4912602;29;20066;-86
2024/02/17 06:53:47;;;;;;;7.53;0.65;;;6.60;99.90;;;4.96;100.00;101704.41;4912692;29;20064;-85
2024/02/17 06:56:13;;;;;;;2.78;0.60;;;;;;;4.93;100.00;101716.59;4893350;29;20047;-85
2024/02/17 06:58:43;;;;;;;7.35;1.08;;;;;;;4.94;100.00;101733.13;4903861;29;20040;-85
2024/02/17 07:01:33;;;;;;;6.03;0.82;;;6.60;99.90;;;4.92;100.00;101727.06;4912432;29;20091;-86
2024/02/17 07:04:20;;;;;;;10.35;0.90;;;6.60;99.90;;;5.03;100.00;101742.63;4877993;29;20506;-86
2024/02/17 07:07:11;;;;;;;13.20;1.70;;;6.60;99.90;;;5.06;100.00;101740.88;4878956;29;20044;-87
2024/02/17 07:09:52;;;;;;;11.50;1.60;;;;;;;5.18;100.00;101752.09;4872486;29;20515;-87
2024/02/17 07:17:23;;;;;;;14.60;1.08;;;6.70;99.90;;;4.98;100.00;101744.44;5025330;28;20045;-86
2024/02/17 07:20:31;;;;;;;13.15;1.75;;;;;;;5.01;100.00;101757.44;5014659;28;20025;-87
2024/02/17 07:23:13;;;;;;;12.10;1.50;;;6.60;99.90;;;5.03;100.00;101767.03;5018442;28;20034;-86
2024/02/17 07:25:51;;;;;;;9.45;1.65;;;;;;;5.07;100.00;101757.41;4999262;28;20022;-87
2024/02/17 07:29:02;;;;;;;12.00;1.20;;;6.60;99.90;;;5.06;100.00;101781.78;5005195;28;20044;-87
2024/02/17 07:31:41;;;;;;;7.40;0.80;;;;;;;5.04;100.00;101773.97;4932537;29;20043;-86
2024/02/17 07:34:11;;;;;;;5.72;1.05;;;6.60;99.90;;;4.91;100.00;101786.22;5040998;23;20064;-86
2024/02/17 07:37:02;;;;;;;12.73;1.40;;;6.60;99.90;;;5.07;100.00;101802.63;5016560;28;20551;-87
2024/02/17 07:39:35;;;;;;;5.90;1.05;;;;;;;4.96;100.00;101795.78;4921519;29;20047;-86
2024/02/17 07:42:11;;;;;;;5.80;1.25;;;;;;;4.96;100.00;101806.22;4948113;28;20069;-85
2024/02/17 07:44:51;;;;;;;13.60;1.08;;;;;;;5.02;100.00;101816.63;4930383;28;20069;-87
2024/02/17 07:48:12;;;;;;;11.98;1.77;;;6.60;99.90;;;4.97;100.00;101814.03;4922759;29;20071;-86
2024/02/17 07:50:43;;;;;;;6.32;1.10;;;6.60;99.90;;;4.93;100.00;101818.41;4870302;29;20044;-86
2024/02/17 07:53:32;;;;;;;10.43;1.27;;;6.60;99.90;;;4.99;100.00;101822.72;4960678;23;20566;-86
2024/02/17 07:56:02;;;;;;;16.67;1.25;;;;;;;4.89;100.00;101816.69;4908920;29;20047;-86
2024/02/17 07:58:51;;;;;;;12.90;1.55;;;;;;;5.02;100.00;101832.28;4923992;29;20095;-86
2024/02/17 08:01:31;;;;;;;11.35;2.65;;;6.60;99.90;;;4.97;100.00;101829.69;4908202;29;20103;-86
2024/02/17 08:04:00;;;;;;;21.10;2.08;;;;;;;4.96;100.00;101851.44;4890650;29;20033;-87
2024/02/17 08:07:15;;;;;;;10.75;1.02;;;6.60;99.90;;;4.89;100.00;101852.34;4896924;29;20487;-87
2024/02/17 08:09:51;;;;;;;4.95;1.02;;;;;;;4.91;100.00;101866.28;4894061;29;20040;-86
2024/02/17 08:14:52;;;;;;;10.85;1.17;;;6.70;99.90;;;5.04;100.00;101877.53;5041843;28;20052;-84
2024/02/17 08:17:50;;;;;;;4.70;1.05;;;6.60;99.90;;;5.07;100.00;101886.19;5012148;28;20025;-89
2024/02/17 08:20:16;;;;;;;13.10;1.90;;;6.70;99.90;;;5.00;100.00;101896.69;4944350;28;20043;-84
2024/02/17 08:22:42;;;;;;;14.30;1.67;;;6.60;99.90;;;4.96;100.00;101887.13;4946041;29;20051;-84
2024/02/17 08:25:16;;;;;;;19.17;2.17;;;6.60;99.90;;;5.00;100.00;101886.25;4933021;29;20043;-83
2024/02/17 08:27:43;;;;;;;14.43;2.28;;;6.70;99.90;;;5.10;100.00;101893.16;4919917;29;20035;-82
2024/02/17 08:30:10;;;;;;;14.52;2.83;;;6.70;99.90;;;5.03;100.00;101887.09;4930791;29;20032;-82
2024/02/17 08:32:46;;;;;;;14.23;1.48;;;6.70;99.90;;;5.09;99.82;101900.09;4933356;29;20067;-82
2024/02/17 08:35:12;;;;;;;16.75;2.00;;;6.70;99.90;;;5.25;98.42;101910.50;4913043;29;20072;-83
2024/02/17 08:37:38;;;;;;;15.85;2.15;;;6.80;99.90;;;5.25;97.37;101908.72;4943447;29;20040;-84
2024/02/17 08:40:18;;;;;;;18.63;2.00;;;6.90;99.90;;;5.41;97.21;101914.72;4931513;29;20126;-84
2024/02/17 08:42:51;;;;;;;21.75;2.63;;;6.90;99.90;;;5.46;96.91;101917.31;4932627;29;20050;-83
2024/02/17 08:45:17;;;;;;;17.27;1.98;;;7.00;99.90;;;5.42;96.22;101926.94;4935116;29;20083;-83
2024/02/17 08:47:42;;;;;;;20.52;2.95;;;6.90;99.90;;;5.37;95.93;101923.44;4914615;29;20028;-83
2024/02/17 08:50:09;;;;;;;22.27;2.13;;;7.00;99.90;;;5.47;95.65;101929.50;4914298;29;20138;-84
2024/02/17 08:52:35;;;;;;;19.83;2.13;;;7.10;99.90;;;5.52;95.65;101936.41;4950751;29;20067;-83
2024/02/17 08:55:08;;;;;;;22.33;2.33;;;7.10;99.90;;;5.59;94.78;101929.41;4944882;29;20039;-83
2024/02/17 08:57:44;;;;;;;;;;;;;;;;;;;;;
2024/02/17 09:00:14;;;;;;;18.55;2.47;;;7.10;99.90;;;5.47;94.79;101939.97;5015573;28;20100;-83
2024/02/17 09:02:40;;;;;;;15.70;1.92;;;7.10;99.90;;;5.43;94.98;101957.38;5010446;28;20119;-83
2024/02/17 09:05:14;;;;;;;20.38;2.22;;;7.10;99.90;;;5.43;95.42;101960.00;5011079;28;20026;-84
2024/02/17 09:07:42;;;;;;;16.63;2.03;;;7.00;99.90;;;5.40;96.15;101965.25;5009320;28;20046;-83
2024/02/17 09:10:10;;;;;;;14.30;2.10;;;7.00;99.90;;;5.29;96.37;101960.06;5023903;28;20036;-84
2024/02/17 09:12:42;;;;;;;28.05;3.83;;;7.00;99.90;;;5.35;96.72;101962.63;5010937;28;20032;-83
2024/02/17 09:15:14;;;;;;;19.95;3.05;;;7.00;99.90;;;5.34;97.49;101979.19;5014519;28;20059;-84
2024/02/17 09:18:05;;;;;;;15.02;2.20;;;7.00;99.90;;;5.27;96.85;101984.44;5016322;28;20022;-83
2024/02/17 09:20:58;;;;;;;28.35;2.75;;;7.00;99.90;;;5.30;97.08;101992.28;5011581;28;20500;-83
2024/02/17 09:23:29;;;;;;;26.48;2.50;;;7.00;99.90;;;5.37;96.61;101996.59;5015797;28;20073;-83
2024/02/17 09:26:06;;;;;;;14.48;1.55;;;6.90;99.90;;;5.31;97.00;102014.91;5011089;28;20026;-83
2024/02/17 09:28:32;;;;;;;25.67;2.58;;;6.90;99.90;;;5.32;97.51;101998.38;5026037;28;20072;-84
2024/02/17 09:30:58;;;;;;;9.73;1.67;;;6.90;99.90;;;5.23;97.39;102008.84;5009497;28;20030;-84
2024/02/17 09:33:43;;;;;;;;;;;;;;;;;;;;;
2024/02/17 09:36:15;;;;;;;14.70;1.60;;;6.90;99.90;;;5.30;97.38;102021.00;5012428;28;20040;-83
2024/02/17 09:38:40;;;;;;;7.95;1.98;;;6.90;99.90;;;5.27;97.16;102031.44;5024850;28;20029;-83
2024/02/17 09:41:15;;;;;;;15.35;2.35;;;6.90;99.90;;;5.28;97.16;102038.44;5022713;28;20404;-83
2024/02/17 09:43:57;;;;;;;17.50;2.25;;;6.90;99.90;;;5.26;97.15;102035.81;5005938;28;20636;-82
2024/02/17 09:46:40;;;;;;;20.08;2.15;;;6.90;99.90;;;5.35;97.66;102046.22;5018616;28;20470;-83
2024/02/17 09:51:57;;;;;;;8.57;1.83;;;7.00;99.90;;;5.40;98.10;102047.94;4968630;28;20133;-83
2024/02/17 09:54:35;;;;;;;18.33;2.80;;;7.00;99.90;;;5.43;98.01;102048.81;4963896;28;20030;-82
2024/02/17 09:57:15;;;;;;;19.40;2.80;;;7.10;99.90;;;5.42;98.28;102056.66;4962536;28;20509;-82
2024/02/17 09:59:41;;;;;;;15.63;1.92;;;7.00;99.90;;;5.35;97.78;102041.00;4951892;28;20045;-83
2024/02/17 10:02:10;;;;;;;16.02;2.53;;;7.00;99.90;;;5.43;98.36;102074.06;4947953;28;20062;-84
2024/02/17 10:05:31;;;;;;;22.17;2.47;;;7.00;99.90;;;5.36;98.46;102062.78;4976079;28;20097;-85
2024/02/17 10:08:03;;;;;;;8.63;2.17;;;7.00;99.90;;;5.42;98.57;102074.94;4981321;28;20121;-84
2024/02/17 10:10:38;;;;;;;6.50;1.05;;;7.10;99.90;;;5.45;98.66;102088.84;4966860;28;20042;-84
2024/02/17 10:13:19;;;;;;;9.07;1.38;;;7.00;99.90;;;5.46;99.17;102080.13;4967985;28;20481;-83
2024/02/17 10:15:45;;;;;;;8.75;1.52;;;;;;;5.52;99.00;102087.94;4952915;28;20087;-83
2024/02/17 10:18:23;;;;;;;13.50;1.70;;;7.10;99.90;;;5.49;98.49;102090.59;4983496;28;20440;-83
2024/02/17 10:20:58;;;;;;;17.67;2.60;;;7.10;99.90;;;5.48;98.63;102109.72;4950433;28;20030;-83
2024/02/17 10:23:28;;;;;;;15.57;2.22;;;7.10;99.90;;;5.41;98.63;102107.16;4964151;28;20075;-83
2024/02/17 10:26:08;;;;;;;12.65;2.30;;;7.10;99.90;;;5.42;98.76;102114.13;4966079;28;20045;-83
2024/02/17 10:28:42;;;;;;;9.40;1.50;;;7.10;99.90;;;5.44;99.38;102121.09;4977396;28;20033;-83
2024/02/17 10:31:55;;;;;;;6.15;1.77;;;7.10;99.90;;;5.44;99.78;102126.31;5001236;28;20033;-83
2024/02/17 10:34:24;;;;;;;12.20;1.92;;;7.10;99.90;;;5.46;99.03;102137.59;4954692;29;20058;-83
2024/02/17 10:37:07;;;;;;;15.43;2.35;;;7.00;99.90;;;5.39;98.74;102129.81;4956352;28;20046;-82
2024/02/17 10:39:43;;;;;;;15.00;2.78;;;7.10;99.90;;;5.50;99.10;102146.31;4939911;29;20035;-82
2024/02/17 10:42:17;;;;;;;11.77;1.55;;;7.10;99.90;;;5.50;99.18;102154.16;4938266;28;20046;-83
2024/02/17 10:44:43;;;;;;;5.25;0.57;;;7.10;99.90;;;5.43;98.46;102147.22;4938828;29;20027;-83
2024/02/17 10:47:09;;;;;;;18.88;2.67;;;7.10;99.90;;;5.59;98.98;102150.66;4937543;29;20041;-83
2024/02/17 10:49:54;;;;;;;6.57;2.13;;;7.20;99.90;;;5.55;99.48;102149.81;4921586;29;20033;-82
2024/02/17 10:52:32;;;;;;;6.57;1.00;;;7.10;99.90;;;5.47;99.16;102165.50;4923703;29;20045;-82
2024/02/17 10:55:11;;;;;;;9.88;1.38;;;7.10;99.90;;;5.50;98.95;102155.00;4954641;29;20031;-83
2024/02/17 10:58:05;;;;;;;14.30;2.10;;;7.10;99.90;;;5.61;99.84;102164.56;4955393;29;20497;-82
2024/02/17 11:00:42;;;;;;;7.85;1.00;;;7.20;99.90;;;5.57;99.74;102170.69;4953414;29;20473;-82
2024/02/17 11:03:12;;;;;;;6.80;0.80;;;7.20;99.90;;;5.62;99.82;102161.97;4925167;29;20102;-83
2024/02/17 11:05:50;;;;;;;9.70;1.48;;;7.20;99.90;;;5.69;99.85;102178.50;4939908;29;20069;-83
2024/02/17 11:08:25;;;;;;;6.85;0.95;;;7.30;99.90;;;5.72;100.00;102181.97;4940986;29;20035;-83
2024/02/17 11:10:51;;;;;;;6.47;1.05;;;7.30;99.90;;;5.69;99.19;102181.09;4971983;28;20057;-83
2024/02/17 11:13:24;;;;;;;6.43;0.90;;;7.30;99.90;;;5.69;100.00;102183.72;4999686;28;20064;-84
2024/02/17 11:16:42;;;;;;;17.27;2.10;;;7.30;99.90;;;5.71;100.00;102180.22;4994577;28;20033;-83
2024/02/17 11:19:12;;;;;;;12.05;1.40;;;7.30;99.90;;;5.64;100.00;102202.03;5014195;28;20452;-83
2024/02/17 11:21:47;;;;;;;8.27;1.48;;;7.20;99.90;;;5.52;100.00;102202.91;4994627;28;20030;-84
2024/02/17 11:24:18;;;;;;;6.50;0.80;;;7.20;99.90;;;5.57;100.00;102199.41;5012285;28;20062;-82
2024/02/17 11:26:53;;;;;;;4.45;0.98;;;7.20;99.90;;;5.52;100.00;102215.13;4992613;28;20042;-82
2024/02/17 11:29:34;;;;;;;9.73;1.33;;;7.20;99.90;;;5.52;100.00;102209.88;5023610;28;20061;-83
2024/02/17 11:32:02;;;;;;;10.45;1.00;;;7.20;99.90;;;5.48;100.00;102214.25;5008227;28;20071;-83
2024/02/17 11:34:34;;;;;;;3.90;0.90;;;7.10;99.90;;;5.47;100.00;102211.66;5007945;28;20052;-83
2024/02/17 11:37:03;;;;;;;10.95;1.17;;;7.10;99.90;;;5.46;100.00;102225.56;5007607;28;20026;-82
2024/02/17 11:39:31;;;;;;;2.38;0.40;;;7.10;99.90;;;5.41;100.00;102216.88;5012267;28;20108;-84
2024/02/17 11:42:09;;;;;;;5.13;0.70;;;7.10;99.90;;;5.40;100.00;102218.63;5007130;28;20030;-83
2024/02/17 11:44:45;;;;;;;8.93;1.60;;;7.10;99.90;;;5.46;100.00;102236.03;5006272;28;20057;-83
2024/02/17 11:47:23;;;;;;;7.30;1.55;;;7.00;99.90;;;5.44;100.00;102230.81;4990937;28;20046;-81
2024/02/17 11:49:50;;;;;;;5.40;0.85;;;7.10;99.90;;;5.47;100.00;102236.03;5007660;28;20420;-83
2024/02/17 11:52:19;;;;;;;6.80;0.98;;;7.10;99.90;;;5.46;100.00;102238.63;5003668;28;20033;-83
2024/02/17 11:54:51;;;;;;;8.65;1.30;;;7.10;99.90;;;5.56;100.00;102240.38;5007914;28;20088;-83
2024/02/17 11:57:18;;;;;;;7.82;1.20;;;7.10;99.90;;;5.48;100.00;102237.75;5011677;28;20061;-83
2024/02/17 12:00:01;;;;;;;4.78;1.00;;;7.10;99.90;;;5.58;99.75;102259.53;5010959;28;20032;-82
2024/02/17 12:02:43;;;;;;;3.47;0.93;;;7.20;99.90;;;5.61;99.23;102261.25;5012483;28;20077;-83
2024/02/17 12:05:18;;;;;;;3.00;0.85;;;7.20;99.90;;;5.65;98.56;102265.63;5009828;28;20073;-82
2024/02/17 12:07:47;;;;;;;10.25;1.70;;;7.20;99.90;;;5.71;98.77;102268.22;5007810;28;20472;-82
2024/02/17 12:10:19;;;;;;;6.53;0.77;;;7.30;99.90;;;5.73;98.88;102279.53;5011281;28;20044;-82
2024/02/17 12:12:45;;;;;;;5.65;1.25;;;7.30;99.90;;;5.67;98.03;102266.47;4993927;28;20495;-82
2024/02/17 12:15:23;;;;;;;8.65;1.50;;;7.30;99.90;;;5.72;97.86;102285.63;5008959;28;20037;-83
2024/02/17 12:17:49;;;;;;;11.50;1.55;;;7.40;99.90;;;5.85;98.06;102294.31;5006025;28;20026;-82
2024/02/17 12:20:17;;;;;;;10.00;1.23;;;7.40;99.90;;;5.82;97.95;102289.97;5009559;28;20172;-83
2024/02/17 12:22:59;;;;;;;15.00;2.03;;;7.40;99.90;;;5.86;97.31;102310.00;5009088;28;20060;-83
2024/02/17 12:25:30;;;;;;;9.18;1.85;;;7.40;99.90;;;5.88;97.21;102303.03;5006670;28;20029;-82
2024/02/17 12:27:57;;;;;;;9.30;1.15;;;7.40;99.90;;;5.77;96.52;102307.44;4991921;28;20030;-83
2024/02/17 12:30:24;;;;;;;5.28;1.10;;;7.40;99.90;;;5.71;96.54;102310.91;5009040;28;20377;-82
2024/02/17 12:33:08;;;;;;;14.07;1.20;;;7.30;99.90;;;5.61;96.88;102316.13;4991906;28;20030;-82